sensor_id;sensor_type;location;lat;lon;timestamp;P1;durP1;ratioP1;P2;durP2;ratioP2
60243;SDS011;46106;51.468;5.814;2023-05-07T00:00:16;17.27;;;10.98;;
60243;SDS011;46106;51.468;5.814;2023-05-07T00:02:44;17.30;;;12.68;;
60243;SDS011;46106;51.468;5.814;2023-05-07T00:05:10;15.43;;;11.45;;
60243;SDS011;46106;51.468;5.814;2023-05-07T00:07:36;15.13;;;10.85;;
60243;SDS011;46106;51.468;5.814;2023-05-07T00:10:01;16.80;;;11.90;;
60243;SDS011;46106;51.468;5.814;2023-05-07T00:12:28;19.98;;;12.90;;
60243;SDS011;46106;51.468;5.814;2023-05-07T00:14:56;20.33;;;12.95;;
60243;SDS011;46106;51.468;5.814;2023-05-07T00:17:22;24.40;;;13.30;;
60243;SDS011;46106;51.468;5.814;2023-05-07T00:19:48;23.25;;;13.63;;
60243;SDS011;46106;51.468;5.814;2023-05-07T00:22:13;30.23;;;15.60;;
60243;SDS011;46106;51.468;5.814;2023-05-07T00:24:39;18.67;;;13.70;;
60243;SDS011;46106;51.468;5.814;2023-05-07T00:27:04;22.77;;;13.77;;
60243;SDS011;46106;51.468;5.814;2023-05-07T00:29:30;19.40;;;13.90;;
60243;SDS011;46106;51.468;5.814;2023-05-07T00:31:56;20.77;;;14.15;;
60243;SDS011;46106;51.468;5.814;2023-05-07T00:34:21;21.02;;;14.02;;
60243;SDS011;46106;51.468;5.814;2023-05-07T00:36:47;17.98;;;14.13;;
60243;SDS011;46106;51.468;5.814;2023-05-07T00:39:13;21.98;;;14.68;;
60243;SDS011;46106;51.468;5.814;2023-05-07T00:41:38;17.70;;;12.77;;
60243;SDS011;46106;51.468;5.814;2023-05-07T00:44:04;24.13;;;14.07;;
60243;SDS011;46106;51.468;5.814;2023-05-07T00:46:30;18.90;;;12.90;;
60243;SDS011;46106;51.468;5.814;2023-05-07T00:48:56;20.13;;;12.90;;
60243;SDS011;46106;51.468;5.814;2023-05-07T00:51:22;16.92;;;12.13;;
60243;SDS011;46106;51.468;5.814;2023-05-07T00:53:48;18.00;;;13.52;;
60243;SDS011;46106;51.468;5.814;2023-05-07T00:56:14;21.23;;;14.15;;
60243;SDS011;46106;51.468;5.814;2023-05-07T00:58:40;20.75;;;13.93;;
60243;SDS011;46106;51.468;5.814;2023-05-07T01:01:06;23.73;;;15.07;;
60243;SDS011;46106;51.468;5.814;2023-05-07T01:03:32;22.50;;;14.15;;
60243;SDS011;46106;51.468;5.814;2023-05-07T01:05:58;18.77;;;13.57;;
60243;SDS011;46106;51.468;5.814;2023-05-07T01:08:24;25.17;;;15.95;;
60243;SDS011;46106;51.468;5.814;2023-05-07T01:10:53;21.05;;;15.20;;
60243;SDS011;46106;51.468;5.814;2023-05-07T01:13:20;18.30;;;14.32;;
60243;SDS011;46106;51.468;5.814;2023-05-07T01:15:46;20.63;;;15.07;;
60243;SDS011;46106;51.468;5.814;2023-05-07T01:18:11;25.27;;;16.83;;
60243;SDS011;46106;51.468;5.814;2023-05-07T01:20:37;29.83;;;16.60;;
60243;SDS011;46106;51.468;5.814;2023-05-07T01:23:02;21.90;;;16.23;;
60243;SDS011;46106;51.468;5.814;2023-05-07T01:25:28;25.38;;;16.25;;
60243;SDS011;46106;51.468;5.814;2023-05-07T01:27:55;30.05;;;17.73;;
60243;SDS011;46106;51.468;5.814;2023-05-07T01:30:21;23.40;;;16.65;;
60243;SDS011;46106;51.468;5.814;2023-05-07T01:32:48;25.73;;;16.88;;
60243;SDS011;46106;51.468;5.814;2023-05-07T01:35:18;21.70;;;17.23;;
60243;SDS011;46106;51.468;5.814;2023-05-07T01:37:47;23.83;;;16.77;;
60243;SDS011;46106;51.468;5.814;2023-05-07T01:40:13;27.15;;;17.63;;
60243;SDS011;46106;51.468;5.814;2023-05-07T01:42:39;25.48;;;17.27;;
60243;SDS011;46106;51.468;5.814;2023-05-07T01:45:08;27.42;;;17.88;;
60243;SDS011;46106;51.468;5.814;2023-05-07T01:47:33;32.03;;;18.20;;
60243;SDS011;46106;51.468;5.814;2023-05-07T01:50:00;27.27;;;18.67;;
60243;SDS011;46106;51.468;5.814;2023-05-07T01:52:27;31.20;;;19.42;;
60243;SDS011;46106;51.468;5.814;2023-05-07T01:54:53;30.80;;;20.30;;
60243;SDS011;46106;51.468;5.814;2023-05-07T01:57:18;30.23;;;19.88;;
60243;SDS011;46106;51.468;5.814;2023-05-07T01:59:44;31.45;;;20.80;;
60243;SDS011;46106;51.468;5.814;2023-05-07T02:02:09;26.52;;;19.70;;
60243;SDS011;46106;51.468;5.814;2023-05-07T02:04:35;29.55;;;20.85;;
60243;SDS011;46106;51.468;5.814;2023-05-07T02:07:01;26.55;;;19.40;;
60243;SDS011;46106;51.468;5.814;2023-05-07T02:09:27;28.15;;;21.42;;
60243;SDS011;46106;51.468;5.814;2023-05-07T02:11:52;28.48;;;20.50;;
60243;SDS011;46106;51.468;5.814;2023-05-07T02:14:17;34.15;;;21.60;;
60243;SDS011;46106;51.468;5.814;2023-05-07T02:16:45;31.30;;;22.42;;
60243;SDS011;46106;51.468;5.814;2023-05-07T02:19:10;29.00;;;21.73;;
60243;SDS011;46106;51.468;5.814;2023-05-07T02:21:35;29.95;;;21.33;;
60243;SDS011;46106;51.468;5.814;2023-05-07T02:24:01;30.17;;;22.67;;
60243;SDS011;46106;51.468;5.814;2023-05-07T02:26:26;32.10;;;20.85;;
60243;SDS011;46106;51.468;5.814;2023-05-07T02:28:52;33.50;;;22.35;;
60243;SDS011;46106;51.468;5.814;2023-05-07T02:31:18;33.83;;;22.95;;
60243;SDS011;46106;51.468;5.814;2023-05-07T02:33:44;29.45;;;21.23;;
60243;SDS011;46106;51.468;5.814;2023-05-07T02:36:10;33.95;;;22.00;;
60243;SDS011;46106;51.468;5.814;2023-05-07T02:38:37;34.47;;;22.70;;
60243;SDS011;46106;51.468;5.814;2023-05-07T02:41:03;34.05;;;23.20;;
60243;SDS011;46106;51.468;5.814;2023-05-07T02:43:28;34.65;;;22.63;;
60243;SDS011;46106;51.468;5.814;2023-05-07T02:46:04;37.28;;;23.27;;
60243;SDS011;46106;51.468;5.814;2023-05-07T02:48:30;32.38;;;22.83;;
60243;SDS011;46106;51.468;5.814;2023-05-07T02:50:56;33.95;;;23.52;;
60243;SDS011;46106;51.468;5.814;2023-05-07T02:53:22;32.45;;;22.38;;
60243;SDS011;46106;51.468;5.814;2023-05-07T02:55:50;33.95;;;21.90;;
60243;SDS011;46106;51.468;5.814;2023-05-07T02:58:15;35.33;;;23.40;;
60243;SDS011;46106;51.468;5.814;2023-05-07T03:00:41;38.08;;;22.92;;
60243;SDS011;46106;51.468;5.814;2023-05-07T03:03:06;37.35;;;21.48;;
60243;SDS011;46106;51.468;5.814;2023-05-07T03:05:32;30.83;;;21.17;;
60243;SDS011;46106;51.468;5.814;2023-05-07T03:07:57;34.58;;;23.60;;
60243;SDS011;46106;51.468;5.814;2023-05-07T03:10:23;27.98;;;20.70;;
60243;SDS011;46106;51.468;5.814;2023-05-07T03:12:48;35.50;;;22.20;;
60243;SDS011;46106;51.468;5.814;2023-05-07T03:15:13;31.85;;;21.25;;
60243;SDS011;46106;51.468;5.814;2023-05-07T03:17:39;43.88;;;24.25;;
60243;SDS011;46106;51.468;5.814;2023-05-07T03:20:05;36.78;;;23.30;;
60243;SDS011;46106;51.468;5.814;2023-05-07T03:22:31;31.27;;;22.30;;
60243;SDS011;46106;51.468;5.814;2023-05-07T03:24:56;35.55;;;23.33;;
60243;SDS011;46106;51.468;5.814;2023-05-07T03:27:22;36.13;;;22.48;;
60243;SDS011;46106;51.468;5.814;2023-05-07T03:29:48;37.70;;;23.50;;
60243;SDS011;46106;51.468;5.814;2023-05-07T03:32:13;32.92;;;22.70;;
60243;SDS011;46106;51.468;5.814;2023-05-07T03:34:39;36.38;;;23.42;;
60243;SDS011;46106;51.468;5.814;2023-05-07T03:37:05;28.13;;;21.33;;
60243;SDS011;46106;51.468;5.814;2023-05-07T03:39:30;30.95;;;22.83;;
60243;SDS011;46106;51.468;5.814;2023-05-07T03:41:57;35.90;;;24.13;;
60243;SDS011;46106;51.468;5.814;2023-05-07T03:44:23;35.75;;;22.83;;
60243;SDS011;46106;51.468;5.814;2023-05-07T03:46:48;36.53;;;24.70;;
60243;SDS011;46106;51.468;5.814;2023-05-07T03:49:14;36.92;;;24.63;;
60243;SDS011;46106;51.468;5.814;2023-05-07T03:51:39;39.50;;;25.17;;
60243;SDS011;46106;51.468;5.814;2023-05-07T03:54:05;39.97;;;26.52;;
60243;SDS011;46106;51.468;5.814;2023-05-07T03:56:30;38.22;;;25.05;;
60243;SDS011;46106;51.468;5.814;2023-05-07T03:58:56;45.97;;;26.73;;
60243;SDS011;46106;51.468;5.814;2023-05-07T04:01:21;37.53;;;25.95;;
60243;SDS011;46106;51.468;5.814;2023-05-07T04:03:47;40.83;;;26.17;;
60243;SDS011;46106;51.468;5.814;2023-05-07T04:06:12;38.53;;;26.50;;
60243;SDS011;46106;51.468;5.814;2023-05-07T04:08:38;48.30;;;26.77;;
60243;SDS011;46106;51.468;5.814;2023-05-07T04:11:03;35.05;;;25.20;;
60243;SDS011;46106;51.468;5.814;2023-05-07T04:13:29;42.45;;;24.60;;
60243;SDS011;46106;51.468;5.814;2023-05-07T04:15:55;36.92;;;26.05;;
60243;SDS011;46106;51.468;5.814;2023-05-07T04:18:21;41.42;;;25.58;;
60243;SDS011;46106;51.468;5.814;2023-05-07T04:20:47;42.45;;;26.27;;
60243;SDS011;46106;51.468;5.814;2023-05-07T04:23:14;41.30;;;26.25;;
60243;SDS011;46106;51.468;5.814;2023-05-07T04:25:40;39.97;;;26.58;;
60243;SDS011;46106;51.468;5.814;2023-05-07T04:28:05;43.13;;;25.38;;
60243;SDS011;46106;51.468;5.814;2023-05-07T04:30:31;38.55;;;25.00;;
60243;SDS011;46106;51.468;5.814;2023-05-07T04:32:56;36.35;;;24.17;;
60243;SDS011;46106;51.468;5.814;2023-05-07T04:35:22;39.03;;;23.45;;
60243;SDS011;46106;51.468;5.814;2023-05-07T04:37:47;34.03;;;23.70;;
60243;SDS011;46106;51.468;5.814;2023-05-07T04:40:13;33.22;;;23.02;;
60243;SDS011;46106;51.468;5.814;2023-05-07T04:42:38;34.75;;;23.25;;
60243;SDS011;46106;51.468;5.814;2023-05-07T04:45:04;32.15;;;22.67;;
60243;SDS011;46106;51.468;5.814;2023-05-07T04:47:30;34.35;;;23.08;;
60243;SDS011;46106;51.468;5.814;2023-05-07T04:49:57;33.05;;;22.70;;
60243;SDS011;46106;51.468;5.814;2023-05-07T04:52:22;45.22;;;23.63;;
60243;SDS011;46106;51.468;5.814;2023-05-07T04:54:48;38.78;;;23.30;;
60243;SDS011;46106;51.468;5.814;2023-05-07T04:57:13;29.98;;;22.33;;
60243;SDS011;46106;51.468;5.814;2023-05-07T04:59:39;36.28;;;23.75;;
60243;SDS011;46106;51.468;5.814;2023-05-07T05:02:04;36.17;;;22.10;;
60243;SDS011;46106;51.468;5.814;2023-05-07T05:04:30;30.48;;;21.98;;
60243;SDS011;46106;51.468;5.814;2023-05-07T05:06:55;31.30;;;21.75;;
60243;SDS011;46106;51.468;5.814;2023-05-07T05:09:21;30.88;;;21.27;;
60243;SDS011;46106;51.468;5.814;2023-05-07T05:11:47;26.55;;;20.55;;
60243;SDS011;46106;51.468;5.814;2023-05-07T05:14:12;28.27;;;20.65;;
60243;SDS011;46106;51.468;5.814;2023-05-07T05:16:38;27.38;;;20.52;;
60243;SDS011;46106;51.468;5.814;2023-05-07T05:19:03;31.65;;;20.48;;
60243;SDS011;46106;51.468;5.814;2023-05-07T05:21:29;28.95;;;18.67;;
60243;SDS011;46106;51.468;5.814;2023-05-07T05:23:54;26.35;;;16.95;;
60243;SDS011;46106;51.468;5.814;2023-05-07T05:26:20;22.85;;;16.83;;
60243;SDS011;46106;51.468;5.814;2023-05-07T05:28:46;24.05;;;17.13;;
60243;SDS011;46106;51.468;5.814;2023-05-07T05:31:11;22.13;;;16.35;;
60243;SDS011;46106;51.468;5.814;2023-05-07T05:33:37;25.92;;;16.55;;
60243;SDS011;46106;51.468;5.814;2023-05-07T05:36:02;22.50;;;16.40;;
60243;SDS011;46106;51.468;5.814;2023-05-07T05:38:28;25.15;;;15.68;;
60243;SDS011;46106;51.468;5.814;2023-05-07T05:40:54;24.23;;;15.18;;
60243;SDS011;46106;51.468;5.814;2023-05-07T05:43:19;22.90;;;15.15;;
60243;SDS011;46106;51.468;5.814;2023-05-07T05:45:45;19.38;;;14.18;;
60243;SDS011;46106;51.468;5.814;2023-05-07T05:48:12;20.33;;;14.20;;
60243;SDS011;46106;51.468;5.814;2023-05-07T05:50:37;18.67;;;12.88;;
60243;SDS011;46106;51.468;5.814;2023-05-07T05:53:02;21.35;;;13.35;;
60243;SDS011;46106;51.468;5.814;2023-05-07T05:55:28;16.40;;;12.02;;
60243;SDS011;46106;51.468;5.814;2023-05-07T05:57:54;19.90;;;15.02;;
60243;SDS011;46106;51.468;5.814;2023-05-07T06:00:19;18.95;;;13.23;;
60243;SDS011;46106;51.468;5.814;2023-05-07T06:02:47;19.63;;;13.43;;
60243;SDS011;46106;51.468;5.814;2023-05-07T06:05:13;19.33;;;12.88;;
60243;SDS011;46106;51.468;5.814;2023-05-07T06:07:38;14.88;;;11.95;;
60243;SDS011;46106;51.468;5.814;2023-05-07T06:10:04;23.85;;;13.30;;
60243;SDS011;46106;51.468;5.814;2023-05-07T06:12:30;15.43;;;12.15;;
60243;SDS011;46106;51.468;5.814;2023-05-07T06:14:56;18.60;;;12.85;;
60243;SDS011;46106;51.468;5.814;2023-05-07T06:17:21;18.08;;;13.68;;
60243;SDS011;46106;51.468;5.814;2023-05-07T06:19:47;20.05;;;12.82;;
60243;SDS011;46106;51.468;5.814;2023-05-07T06:22:12;17.85;;;12.07;;
60243;SDS011;46106;51.468;5.814;2023-05-07T06:24:38;16.20;;;12.65;;
60243;SDS011;46106;51.468;5.814;2023-05-07T06:27:03;23.02;;;13.13;;
60243;SDS011;46106;51.468;5.814;2023-05-07T06:29:28;17.63;;;11.85;;
60243;SDS011;46106;51.468;5.814;2023-05-07T06:31:56;16.83;;;11.80;;
60243;SDS011;46106;51.468;5.814;2023-05-07T06:34:22;30.33;;;11.20;;
60243;SDS011;46106;51.468;5.814;2023-05-07T06:36:47;18.85;;;12.35;;
60243;SDS011;46106;51.468;5.814;2023-05-07T06:39:12;15.07;;;10.75;;
